x

Montauk Point -23 Nm Ssw Of Montauk Point, Ny (44017) Wave Buoy

9:50am - Sun 30th Aug 2015 All times are EDT. -4 hours from GMT.

  • Sig Wave height 3.0ft
  • Swell Direction
  • Peak Period 11s
  • Average Period 5s
  • Wind
    13mph, 16mph gusts
  • Sea Temp 72°f
  • Air Temp 73°f
  • Sea Pressure 1019.5mb
  • Montauk Point -23 Nm Ssw Of Montauk Point, Ny
  • Montauk Point -23 Nm Ssw Of Montauk Point, Ny

More Historic Weather Station data

Upgrade to MSW Pro to gain access to the past 30 days of data for over 8000 Wavebouys and Weather Stations around the globe.

Join Pro

Comparision Forecast

View Surf forecast
   
Sun 08/30 9:50am 3ft 11s 5s 13 16 mph 1019.5mb 72f 73f
8:50am 3.5ft 10s 5s 16 18 mph 1018.9mb 72f 73f
7:50am 3.5ft 11s 5s 16 18 mph 1019mb 72f 73f
6:50am 3ft 11s 5s 13 18 mph 1018.8mb 72f 73f
5:50am 3ft 11s 5s 13 16 mph 1018.5mb 73f 74f
4:50am 2.5ft 11s 5s 11 16 mph 1018.6mb 73f 74f
3:50am 2.5ft 10s 5s 11 13 mph 1018.7mb 73f 74f
2:50am 2.5ft 11s 5s 13 16 mph 1018.9mb 73f 74f
1:50am 3ft 11s 5s 13 18 mph 1019.4mb 73f 74f
12:50am 3ft 11s 5s 13 16 mph 1019.7mb 73f 74f
Sat 08/29 11:50pm 3ft 11s 5s 13 16 mph 1019.7mb 73f 74f
10:50pm 2.5ft 11s 5s 13 16 mph 1019.8mb 73f 74f
9:50pm 2.5ft 11s 5s 13 16 mph 1019.9mb 73f 74f
8:50pm 2.5ft 11s 6s 13
mph
1019.7mb 74f 74f
7:50pm 2.5ft 10s 6s 13 16 mph 1019.6mb 74f 74f
6:50pm 2.5ft 10s 6s 11 13 mph 1019.5mb 74f 74f
5:50pm 2.5ft 10s 6s 11 13 mph 1020mb 74f 74f
4:50pm 2.5ft 11s 6s 11
mph
1020.3mb 74f 74f
3:50pm 2.5ft 11s 6s 9
mph
1020.6mb 74f 74f
2:50pm 2.5ft 9s 7s 9
mph
1021.3mb 74f 74f
1:50pm 2.5ft 10s 7s 9
mph
1022.1mb 73f 73f
12:50pm 2.5ft 11s 7s 7 9 mph 1022.6mb 73f 73f
11:50am 2.5ft 11s 7s 7 9 mph 1023mb 73f 72f
10:50am 2.5ft 10s 7s 7 9 mph 1023mb 73f 72f
9:50am 3ft 11s 7s 11
mph
1022.7mb 73f 72f
8:50am 3ft 11s 7s 7 9 mph 1022.6mb 72f 72f
7:50am 3ft 11s 7s 7 9 mph 1022.5mb 72f 72f
6:50am 3.5ft 11s 7s 9
mph
1022.1mb 72f 72f
5:50am 2.5ft 11s 7s 7 9 mph 1021.4mb 72f 72f
4:50am 3ft 11s 7s 9 11 mph 1021.5mb 73f 72f
3:50am 2.5ft 11s 7s 11
mph
1021.5mb 73f 72f
2:50am 2.5ft 11s 7s 9 11 mph 1021.6mb 73f 72f
1:50am 2.5ft 10s 7s 11
mph
1021.8mb 73f 73f
12:50am 3ft 10s 8s 9
mph
1022.1mb 73f 73f
Fri 08/28 11:50pm 2.5ft 11s 7s 9 11 mph 1022.3mb 73f 73f
10:50pm 2.5ft 11s 8s 9
mph
1022.1mb 73f 72f
9:50pm 2.5ft 11s 8s 7 9 mph 1021.6mb 74f 72f
8:50pm 2.5ft 11s 8s 7 9 mph 1021.2mb 75f 72f
7:50pm 2.5ft 11s 8s 4 7 mph 1020.6mb 75f 72f
6:50pm 2.5ft 10s 8s 7
mph
1020.3mb 75f 72f
5:50pm 2.5ft 11s 8s 4 7 mph 1020.2mb 76f 72f
4:50pm 2.5ft 10s 7s 2 4 mph 1020.1mb 77f 72f
3:50pm 2.5ft 10s 7s 2 4 mph 1020.8mb 78f 71f
2:50pm 2.5ft 11s 8s  -  mph 1020.9mb 76f 72f
1:50pm 2.5ft 10s 7s 2 4 mph 1021.2mb 75f 69f
12:50pm 2.5ft 10s 7s 2 4 mph 1021.4mb 74f 69f
11:50am 2.5ft 10s 7s 4 7 mph 1021.6mb 73f 69f
10:50am 2.5ft 11s 6s 4 7 mph 1021.4mb 72f 68f
9:50am 2.5ft 10s 6s 7 9 mph 1020.9mb 72f 68f
8:50am 2.5ft 11s 6s 7 9 mph 1020.4mb 72f 68f
7:50am 3ft 9s 6s 9 11 mph 1020mb 73f 68f
6:50am 2.5ft 10s 6s 9 11 mph 1019.6mb 73f 68f
5:50am 2.5ft 10s 6s 11 13 mph 1019mb 73f 69f
4:50am 3ft 10s 6s 13 16 mph 1018.8mb 72f 69f
3:50am 3ft 11s 5s 13 16 mph 1018.7mb 72f 69f
2:50am 2.5ft 10s 6s 13 16 mph 1018.6mb 72f 70f
1:50am 3ft 11s 6s 11
mph
1018.9mb 73f 71f
12:50am 2.5ft 10s 6s 11 13 mph 1019.1mb 73f 72f
Thu 08/27 11:50pm 2.5ft 10s 6s 11 16 mph 1018.7mb 73f 73f
10:50pm 2.5ft 11s 6s 9 11 mph 1018.3mb 73f 74f
9:50pm 2.5ft 10s 6s 11
mph
1017.9mb 74f 74f
8:50pm 2.5ft 10s 5s 11 13 mph 1017.4mb 73f 74f
7:50pm 2.5ft 10s 5s 13 16 mph 1016.8mb 73f 73f
6:50pm 2.5ft 8s 5s 13 16 mph 1016.5mb 73f 73f
5:50pm 2.5ft 10s 6s 13 16 mph 1016.4mb 73f 73f
4:50pm 2.5ft 11s 6s 11 13 mph 1016.2mb 73f 72f
3:50pm 2.5ft 10s 6s 11 13 mph 1016.3mb 72f 72f
2:50pm 2.5ft 11s 6s 11 13 mph 1016.8mb 72f 71f
1:50pm 2.5ft 9s 6s 7 9 mph 1017mb 72f 71f
12:50pm 2.5ft 10s 5s 7
mph
1017mb 72f 71f
11:50am 2.5ft 10s 5s 7 11 mph 1017.6mb 72f 70f
10:50am 2.5ft 10s 5s 9 11 mph 1017.4mb 72f 69f
9:50am 2.5ft 10s 5s 11 13 mph 1017.2mb 72f 69f
8:50am 2.5ft 10s 5s 11 13 mph 1016.7mb 72f 69f
7:50am 2ft 10s 5s 9 11 mph 1016.3mb 72f 69f
6:50am 2.5ft 10s 5s 9 11 mph 1015.7mb 72f 70f
5:50am 2.5ft 10s 4s 11 13 mph 1015.1mb 72f 70f
4:50am 2.5ft 11s 4s 13 16 mph 1014.4mb 72f 71f
3:50am 2.5ft 10s 5s 16 18 mph 1014.1mb 73f 71f
2:50am 2.5ft 5s 5s 13 16 mph 1014.2mb 74f 72f
1:50am 2.5ft 5s 5s 18 20 mph 1014.4mb 74f 73f
12:50am 3.5ft 5s 4s 16 18 mph 1014.6mb 74f 75f
Wed 08/26 11:50pm 3.5ft 5s 4s 18 20 mph 1014.7mb 75f 76f
10:50pm 3ft 5s 4s 20 25 mph 1014.6mb 75f 76f
9:50pm 3ft 4s 4s 18 20 mph 1014.4mb 75f 76f
8:50pm 2.5ft 4s 4s 18 20 mph 1013.9mb 75f 76f
7:50pm 3ft 8s 4s 18 22 mph 1013.1mb 74f 76f
5:50pm 3.5ft 4s 4s 18 20 mph 1012.7mb 73f 75f
4:50pm 3ft 4s 4s 20 22 mph 1012.7mb 74f 75f
3:50pm 3ft 10s 4s 18 20 mph 1013mb 74f 75f
2:50pm 2.5ft 10s 4s 16 20 mph 1013.2mb 73f 74f